sensor_id;sensor_type;location;lat;lon;timestamp;pressure;altitude;pressure_sealevel;temperature
70668;BMP280;58242;51.250;-1.118;2022-08-01T00:01:35;100493.44;;;25.96
70668;BMP280;58242;51.250;-1.118;2022-08-01T00:04:01;100497.38;;;25.95
70668;BMP280;58242;51.250;-1.118;2022-08-01T00:06:26;100498.97;;;25.92
70668;BMP280;58242;51.250;-1.118;2022-08-01T00:08:52;100495.09;;;25.90
70668;BMP280;58242;51.250;-1.118;2022-08-01T00:11:17;100492.84;;;25.85
70668;BMP280;58242;51.250;-1.118;2022-08-01T00:13:42;100492.09;;;25.81
70668;BMP280;58242;51.250;-1.118;2022-08-01T00:16:09;100494.88;;;25.78
70668;BMP280;58242;51.250;-1.118;2022-08-01T00:18:34;100497.28;;;25.73
70668;BMP280;58242;51.250;-1.118;2022-08-01T00:21:02;100496.56;;;25.69
70668;BMP280;58242;51.250;-1.118;2022-08-01T00:23:27;100487.25;;;25.63
70668;BMP280;58242;51.250;-1.118;2022-08-01T00:25:52;100494.75;;;25.59
70668;BMP280;58242;51.250;-1.118;2022-08-01T00:28:18;100492.47;;;25.54
70668;BMP280;58242;51.250;-1.118;2022-08-01T00:30:43;100490.56;;;25.51
70668;BMP280;58242;51.250;-1.118;2022-08-01T00:33:08;100498.03;;;25.47
70668;BMP280;58242;51.250;-1.118;2022-08-01T00:35:34;100507.81;;;25.45
70668;BMP280;58242;51.250;-1.118;2022-08-01T00:37:59;100508.66;;;25.42
70668;BMP280;58242;51.250;-1.118;2022-08-01T00:40:25;100509.06;;;25.40
70668;BMP280;58242;51.250;-1.118;2022-08-01T00:42:50;100505.97;;;25.38
70668;BMP280;58242;51.250;-1.118;2022-08-01T00:45:15;100511.44;;;25.38
70668;BMP280;58242;51.250;-1.118;2022-08-01T00:47:41;100510.25;;;25.39
70668;BMP280;58242;51.250;-1.118;2022-08-01T00:50:06;100512.94;;;25.43
70668;BMP280;58242;51.250;-1.118;2022-08-01T00:52:33;100513.69;;;25.47
70668;BMP280;58242;51.250;-1.118;2022-08-01T00:54:58;100515.19;;;25.51
70668;BMP280;58242;51.250;-1.118;2022-08-01T00:57:24;100517.09;;;25.54
70668;BMP280;58242;51.250;-1.118;2022-08-01T00:59:50;100508.84;;;25.57
70668;BMP280;58242;51.250;-1.118;2022-08-01T01:02:17;100513.47;;;25.60
70668;BMP280;58242;51.250;-1.118;2022-08-01T01:04:43;100515.00;;;25.65
70668;BMP280;58242;51.250;-1.118;2022-08-01T01:07:21;100515.72;;;25.69
70668;BMP280;58242;51.250;-1.118;2022-08-01T01:10:12;100514.53;;;25.70
70668;BMP280;58242;51.250;-1.118;2022-08-01T01:12:59;100509.78;;;25.73
70668;BMP280;58242;51.250;-1.118;2022-08-01T01:15:46;100520.75;;;25.73
70668;BMP280;58242;51.250;-1.118;2022-08-01T01:18:30;100513.72;;;25.73
70668;BMP280;58242;51.250;-1.118;2022-08-01T01:23:41;100504.81;;;25.65
70668;BMP280;58242;51.250;-1.118;2022-08-01T01:31:34;100514.47;;;25.47
70668;BMP280;58242;51.250;-1.118;2022-08-01T01:34:02;100511.00;;;25.43
70668;BMP280;58242;51.250;-1.118;2022-08-01T01:36:30;100518.41;;;25.43
70668;BMP280;58242;51.250;-1.118;2022-08-01T01:38:57;100517.66;;;25.42
70668;BMP280;58242;51.250;-1.118;2022-08-01T01:41:24;100513.72;;;25.43
70668;BMP280;58242;51.250;-1.118;2022-08-01T01:43:51;100518.78;;;25.45
70668;BMP280;58242;51.250;-1.118;2022-08-01T01:46:21;100505.88;;;25.45
70668;BMP280;58242;51.250;-1.118;2022-08-01T01:48:48;100509.78;;;25.44
70668;BMP280;58242;51.250;-1.118;2022-08-01T01:51:15;100505.50;;;25.43
70668;BMP280;58242;51.250;-1.118;2022-08-01T01:53:41;100503.56;;;25.40
70668;BMP280;58242;51.250;-1.118;2022-08-01T01:56:08;100498.94;;;25.38
70668;BMP280;58242;51.250;-1.118;2022-08-01T01:58:34;100501.34;;;25.32
70668;BMP280;58242;51.250;-1.118;2022-08-01T02:01:01;100501.81;;;25.27
70668;BMP280;58242;51.250;-1.118;2022-08-01T02:03:28;100506.53;;;25.23
70668;BMP280;58242;51.250;-1.118;2022-08-01T02:05:54;100498.78;;;25.19
70668;BMP280;58242;51.250;-1.118;2022-08-01T02:08:21;100494.13;;;25.12
70668;BMP280;58242;51.250;-1.118;2022-08-01T02:10:50;100496.97;;;25.05
70668;BMP280;58242;51.250;-1.118;2022-08-01T02:13:36;100496.63;;;25.00
70668;BMP280;58242;51.250;-1.118;2022-08-01T02:16:03;100501.78;;;24.95
70668;BMP280;58242;51.250;-1.118;2022-08-01T02:18:29;100501.78;;;24.91
70668;BMP280;58242;51.250;-1.118;2022-08-01T02:20:57;100496.75;;;24.90
70668;BMP280;58242;51.250;-1.118;2022-08-01T02:23:28;100490.88;;;24.88
70668;BMP280;58242;51.250;-1.118;2022-08-01T02:25:57;100490.53;;;24.86
70668;BMP280;58242;51.250;-1.118;2022-08-01T02:28:28;100491.31;;;24.87
70668;BMP280;58242;51.250;-1.118;2022-08-01T02:30:56;100492.88;;;24.87
70668;BMP280;58242;51.250;-1.118;2022-08-01T02:33:34;100487.38;;;24.91
70668;BMP280;58242;51.250;-1.118;2022-08-01T02:36:02;100485.38;;;24.91
70668;BMP280;58242;51.250;-1.118;2022-08-01T02:38:31;100480.28;;;24.93
70668;BMP280;58242;51.250;-1.118;2022-08-01T02:40:59;100483.81;;;24.94
70668;BMP280;58242;51.250;-1.118;2022-08-01T02:43:27;100489.28;;;24.94
70668;BMP280;58242;51.250;-1.118;2022-08-01T02:45:56;100486.13;;;24.95
70668;BMP280;58242;51.250;-1.118;2022-08-01T02:48:24;100487.28;;;24.98
70668;BMP280;58242;51.250;-1.118;2022-08-01T02:50:52;100489.59;;;24.99
70668;BMP280;58242;51.250;-1.118;2022-08-01T02:53:21;100491.56;;;24.99
70668;BMP280;58242;51.250;-1.118;2022-08-01T02:55:49;100485.31;;;24.98
70668;BMP280;58242;51.250;-1.118;2022-08-01T02:58:15;100488.06;;;24.98
70668;BMP280;58242;51.250;-1.118;2022-08-01T03:00:44;100493.09;;;25.00
70668;BMP280;58242;51.250;-1.118;2022-08-01T03:03:11;100488.00;;;25.02
70668;BMP280;58242;51.250;-1.118;2022-08-01T03:05:37;100496.97;;;25.05
70668;BMP280;58242;51.250;-1.118;2022-08-01T03:08:06;100499.22;;;25.10
70668;BMP280;58242;51.250;-1.118;2022-08-01T03:10:32;100505.09;;;25.12
70668;BMP280;58242;51.250;-1.118;2022-08-01T03:13:00;100503.09;;;25.16
70668;BMP280;58242;51.250;-1.118;2022-08-01T03:15:27;100491.34;;;25.19
70668;BMP280;58242;51.250;-1.118;2022-08-01T03:17:55;100487.53;;;25.10
70668;BMP280;58242;51.250;-1.118;2022-08-01T03:20:22;100488.59;;;25.19
70668;BMP280;58242;51.250;-1.118;2022-08-01T03:22:50;100488.56;;;25.22
70668;BMP280;58242;51.250;-1.118;2022-08-01T03:25:18;100491.69;;;25.24
70668;BMP280;58242;51.250;-1.118;2022-08-01T03:27:48;100490.06;;;25.27
70668;BMP280;58242;51.250;-1.118;2022-08-01T03:30:15;100489.69;;;25.28
70668;BMP280;58242;51.250;-1.118;2022-08-01T03:32:41;100486.13;;;25.31
70668;BMP280;58242;51.250;-1.118;2022-08-01T03:35:07;100492.72;;;25.34
70668;BMP280;58242;51.250;-1.118;2022-08-01T03:37:44;100489.97;;;25.34
70668;BMP280;58242;51.250;-1.118;2022-08-01T03:40:15;100485.28;;;25.34
70668;BMP280;58242;51.250;-1.118;2022-08-01T03:42:47;100493.44;;;25.38
70668;BMP280;58242;51.250;-1.118;2022-08-01T03:45:25;100490.72;;;25.38
70668;BMP280;58242;51.250;-1.118;2022-08-01T03:48:05;100484.84;;;25.39
70668;BMP280;58242;51.250;-1.118;2022-08-01T03:50:35;100481.31;;;25.38
70668;BMP280;58242;51.250;-1.118;2022-08-01T03:53:02;100486.78;;;25.38
70668;BMP280;58242;51.250;-1.118;2022-08-01T03:55:30;100490.72;;;25.38
70668;BMP280;58242;51.250;-1.118;2022-08-01T03:57:58;100486.41;;;25.37
70668;BMP280;58242;51.250;-1.118;2022-08-01T04:00:24;100482.97;;;25.33
70668;BMP280;58242;51.250;-1.118;2022-08-01T04:02:52;100483.38;;;25.31
70668;BMP280;58242;51.250;-1.118;2022-08-01T04:05:17;100480.69;;;25.28
70668;BMP280;58242;51.250;-1.118;2022-08-01T04:07:47;100481.50;;;25.25
70668;BMP280;58242;51.250;-1.118;2022-08-01T04:10:15;100487.38;;;25.23
70668;BMP280;58242;51.250;-1.118;2022-08-01T04:12:41;100483.50;;;25.21
70668;BMP280;58242;51.250;-1.118;2022-08-01T04:15:08;100483.50;;;25.21
70668;BMP280;58242;51.250;-1.118;2022-08-01T04:17:33;100487.00;;;25.21
70668;BMP280;58242;51.250;-1.118;2022-08-01T04:19:58;100485.81;;;25.22
70668;BMP280;58242;51.250;-1.118;2022-08-01T04:22:24;100489.72;;;25.25
70668;BMP280;58242;51.250;-1.118;2022-08-01T04:24:53;100495.56;;;25.27
70668;BMP280;58242;51.250;-1.118;2022-08-01T04:27:26;100495.56;;;25.27
70668;BMP280;58242;51.250;-1.118;2022-08-01T04:29:56;100497.09;;;25.28
70668;BMP280;58242;51.250;-1.118;2022-08-01T04:32:23;100498.66;;;25.29
70668;BMP280;58242;51.250;-1.118;2022-08-01T04:34:50;100501.41;;;25.29
70668;BMP280;58242;51.250;-1.118;2022-08-01T04:37:16;100500.19;;;25.30
70668;BMP280;58242;51.250;-1.118;2022-08-01T04:39:44;100503.72;;;25.30
70668;BMP280;58242;51.250;-1.118;2022-08-01T04:42:11;100508.41;;;25.30
70668;BMP280;58242;51.250;-1.118;2022-08-01T04:44:38;100507.22;;;25.31
70668;BMP280;58242;51.250;-1.118;2022-08-01T04:47:05;100511.53;;;25.32
70668;BMP280;58242;51.250;-1.118;2022-08-01T04:49:33;100510.75;;;25.31
70668;BMP280;58242;51.250;-1.118;2022-08-01T04:51:59;100506.84;;;25.32
70668;BMP280;58242;51.250;-1.118;2022-08-01T04:54:29;100503.31;;;25.32
70668;BMP280;58242;51.250;-1.118;2022-08-01T04:56:55;100513.09;;;25.33
70668;BMP280;58242;51.250;-1.118;2022-08-01T04:59:25;100512.31;;;25.32
70668;BMP280;58242;51.250;-1.118;2022-08-01T05:02:16;100505.28;;;25.31
70668;BMP280;58242;51.250;-1.118;2022-08-01T05:04:44;100503.31;;;25.32
70668;BMP280;58242;51.250;-1.118;2022-08-01T05:07:11;100507.63;;;25.33
70668;BMP280;58242;51.250;-1.118;2022-08-01T05:09:38;100507.63;;;25.33
70668;BMP280;58242;51.250;-1.118;2022-08-01T05:12:05;100503.31;;;25.32
70668;BMP280;58242;51.250;-1.118;2022-08-01T05:14:31;100507.22;;;25.31
70668;BMP280;58242;51.250;-1.118;2022-08-01T05:17:02;100509.19;;;25.30
70668;BMP280;58242;51.250;-1.118;2022-08-01T05:19:36;100517.78;;;25.32
70668;BMP280;58242;51.250;-1.118;2022-08-01T05:22:03;100508.38;;;25.33
70668;BMP280;58242;51.250;-1.118;2022-08-01T05:24:33;100508.31;;;25.37
70668;BMP280;58242;51.250;-1.118;2022-08-01T05:26:59;100520.00;;;25.40
70668;BMP280;58242;51.250;-1.118;2022-08-01T05:29:25;100519.22;;;25.43
70668;BMP280;58242;51.250;-1.118;2022-08-01T05:31:51;100519.16;;;25.47
70668;BMP280;58242;51.250;-1.118;2022-08-01T05:34:17;100523.81;;;25.50
70668;BMP280;58242;51.250;-1.118;2022-08-01T05:36:43;100516.72;;;25.52
70668;BMP280;58242;51.250;-1.118;2022-08-01T05:39:08;100525.31;;;25.54
70668;BMP280;58242;51.250;-1.118;2022-08-01T05:41:36;100524.88;;;25.59
70668;BMP280;58242;51.250;-1.118;2022-08-01T05:44:02;100525.22;;;25.61
70668;BMP280;58242;51.250;-1.118;2022-08-01T05:46:28;100523.25;;;25.61
70668;BMP280;58242;51.250;-1.118;2022-08-01T05:48:55;100525.22;;;25.61
70668;BMP280;58242;51.250;-1.118;2022-08-01T05:51:20;100522.53;;;25.57
70668;BMP280;58242;51.250;-1.118;2022-08-01T05:53:46;100528.00;;;25.57
70668;BMP280;58242;51.250;-1.118;2022-08-01T05:56:12;100529.19;;;25.56
70668;BMP280;58242;51.250;-1.118;2022-08-01T05:58:37;100532.34;;;25.55
70668;BMP280;58242;51.250;-1.118;2022-08-01T06:01:03;100526.88;;;25.55
70668;BMP280;58242;51.250;-1.118;2022-08-01T06:03:28;100523.72;;;25.56
70668;BMP280;58242;51.250;-1.118;2022-08-01T06:05:57;100528.34;;;25.59
70668;BMP280;58242;51.250;-1.118;2022-08-01T06:08:22;100529.91;;;25.60
70668;BMP280;58242;51.250;-1.118;2022-08-01T06:10:48;100531.06;;;25.63
70668;BMP280;58242;51.250;-1.118;2022-08-01T06:13:14;100526.72;;;25.65
70668;BMP280;58242;51.250;-1.118;2022-08-01T06:15:39;100539.19;;;25.70
70668;BMP280;58242;51.250;-1.118;2022-08-01T06:18:05;100546.19;;;25.74
70668;BMP280;58242;51.250;-1.118;2022-08-01T06:20:30;100548.44;;;25.79
70668;BMP280;58242;51.250;-1.118;2022-08-01T06:22:56;100549.19;;;25.83
70668;BMP280;58242;51.250;-1.118;2022-08-01T06:25:21;100542.13;;;25.85
70668;BMP280;58242;51.250;-1.118;2022-08-01T06:27:47;100553.03;;;25.89
70668;BMP280;58242;51.250;-1.118;2022-08-01T06:30:13;100549.09;;;25.90
70668;BMP280;58242;51.250;-1.118;2022-08-01T06:32:38;100549.47;;;25.91
70668;BMP280;58242;51.250;-1.118;2022-08-01T06:35:04;100549.06;;;25.93
70668;BMP280;58242;51.250;-1.118;2022-08-01T06:37:31;100542.75;;;25.96
70668;BMP280;58242;51.250;-1.118;2022-08-01T06:40:00;100530.97;;;25.99
70668;BMP280;58242;51.250;-1.118;2022-08-01T06:42:26;100534.06;;;26.01
70668;BMP280;58242;51.250;-1.118;2022-08-01T06:44:51;100541.03;;;26.05
70668;BMP280;58242;51.250;-1.118;2022-08-01T06:47:17;100549.22;;;26.08
70668;BMP280;58242;51.250;-1.118;2022-08-01T06:49:42;100544.88;;;26.11
70668;BMP280;58242;51.250;-1.118;2022-08-01T06:52:07;100546.00;;;26.13
70668;BMP280;58242;51.250;-1.118;2022-08-01T06:54:33;100543.28;;;26.13
70668;BMP280;58242;51.250;-1.118;2022-08-01T06:56:58;100546.38;;;26.15
70668;BMP280;58242;51.250;-1.118;2022-08-01T06:59:24;100549.06;;;26.19
70668;BMP280;58242;51.250;-1.118;2022-08-01T07:01:49;100550.19;;;26.21
70668;BMP280;58242;51.250;-1.118;2022-08-01T07:04:15;100546.28;;;26.22
70668;BMP280;58242;51.250;-1.118;2022-08-01T07:06:40;100554.84;;;26.24
70668;BMP280;58242;51.250;-1.118;2022-08-01T07:09:05;100542.63;;;26.28
70668;BMP280;58242;51.250;-1.118;2022-08-01T07:11:31;100552.72;;;26.35
70668;BMP280;58242;51.250;-1.118;2022-08-01T07:13:56;100551.47;;;26.39
70668;BMP280;58242;51.250;-1.118;2022-08-01T07:16:22;100558.13;;;26.42
70668;BMP280;58242;51.250;-1.118;2022-08-01T07:18:47;100558.91;;;26.42
70668;BMP280;58242;51.250;-1.118;2022-08-01T07:21:13;100563.97;;;26.43
70668;BMP280;58242;51.250;-1.118;2022-08-01T07:23:38;100569.88;;;26.42
70668;BMP280;58242;51.250;-1.118;2022-08-01T07:26:04;100575.00;;;26.40
70668;BMP280;58242;51.250;-1.118;2022-08-01T07:28:29;100573.47;;;26.36
70668;BMP280;58242;51.250;-1.118;2022-08-01T07:30:55;100568.44;;;26.31
70668;BMP280;58242;51.250;-1.118;2022-08-01T07:33:21;100563.78;;;26.28
70668;BMP280;58242;51.250;-1.118;2022-08-01T07:35:47;100565.03;;;26.24
70668;BMP280;58242;51.250;-1.118;2022-08-01T07:38:12;100568.25;;;26.19
70668;BMP280;58242;51.250;-1.118;2022-08-01T07:40:40;100564.75;;;26.18
70668;BMP280;58242;51.250;-1.118;2022-08-01T07:43:05;100567.44;;;26.22
70668;BMP280;58242;51.250;-1.118;2022-08-01T07:45:31;100569.72;;;26.26
70668;BMP280;58242;51.250;-1.118;2022-08-01T07:47:56;100572.28;;;26.37
70668;BMP280;58242;51.250;-1.118;2022-08-01T07:50:22;100578.78;;;26.49
70668;BMP280;58242;51.250;-1.118;2022-08-01T07:52:47;100579.44;;;26.57
70668;BMP280;58242;51.250;-1.118;2022-08-01T07:55:13;100586.38;;;26.61
70668;BMP280;58242;51.250;-1.118;2022-08-01T07:57:38;100583.97;;;26.66
70668;BMP280;58242;51.250;-1.118;2022-08-01T08:00:05;100581.94;;;26.70
70668;BMP280;58242;51.250;-1.118;2022-08-01T08:02:32;100581.53;;;26.72
70668;BMP280;58242;51.250;-1.118;2022-08-01T08:04:57;100588.91;;;26.75
70668;BMP280;58242;51.250;-1.118;2022-08-01T08:07:23;100587.72;;;26.76
70668;BMP280;58242;51.250;-1.118;2022-08-01T08:09:48;100587.72;;;26.76
70668;BMP280;58242;51.250;-1.118;2022-08-01T08:12:14;100598.28;;;26.77
70668;BMP280;58242;51.250;-1.118;2022-08-01T08:14:39;100593.56;;;26.77
70668;BMP280;58242;51.250;-1.118;2022-08-01T08:17:05;100597.88;;;26.78
70668;BMP280;58242;51.250;-1.118;2022-08-01T08:19:31;100592.78;;;26.77
70668;BMP280;58242;51.250;-1.118;2022-08-01T08:21:59;100595.13;;;26.78
70668;BMP280;58242;51.250;-1.118;2022-08-01T08:24:24;100594.34;;;26.78
70668;BMP280;58242;51.250;-1.118;2022-08-01T08:26:54;100600.94;;;26.80
70668;BMP280;58242;51.250;-1.118;2022-08-01T08:29:21;100600.84;;;26.87
70668;BMP280;58242;51.250;-1.118;2022-08-01T08:31:48;100611.66;;;26.97
70668;BMP280;58242;51.250;-1.118;2022-08-01T08:34:13;100597.41;;;27.06
70668;BMP280;58242;51.250;-1.118;2022-08-01T08:36:39;100591.88;;;27.09
70668;BMP280;58242;51.250;-1.118;2022-08-01T08:39:04;100592.56;;;27.13
70668;BMP280;58242;51.250;-1.118;2022-08-01T08:41:31;100591.31;;;27.17
70668;BMP280;58242;51.250;-1.118;2022-08-01T08:43:57;100594.75;;;27.21
70668;BMP280;58242;51.250;-1.118;2022-08-01T08:46:27;100589.97;;;27.25
70668;BMP280;58242;51.250;-1.118;2022-08-01T08:48:53;100587.53;;;27.30
70668;BMP280;58242;51.250;-1.118;2022-08-01T08:51:19;100584.69;;;27.34
70668;BMP280;58242;51.250;-1.118;2022-08-01T08:53:46;100579.50;;;27.39
70668;BMP280;58242;51.250;-1.118;2022-08-01T08:56:13;100586.50;;;27.44
70668;BMP280;58242;51.250;-1.118;2022-08-01T08:58:44;100577.72;;;27.48
70668;BMP280;58242;51.250;-1.118;2022-08-01T09:01:10;100580.06;;;27.50
70668;BMP280;58242;51.250;-1.118;2022-08-01T09:03:37;100584.78;;;27.49
70668;BMP280;58242;51.250;-1.118;2022-08-01T09:06:03;100587.19;;;27.47
70668;BMP280;58242;51.250;-1.118;2022-08-01T09:08:29;100588.38;;;27.46
70668;BMP280;58242;51.250;-1.118;2022-08-01T09:10:54;100584.84;;;27.46
70668;BMP280;58242;51.250;-1.118;2022-08-01T09:13:20;100589.16;;;27.47
70668;BMP280;58242;51.250;-1.118;2022-08-01T09:15:53;100589.94;;;27.47
70668;BMP280;58242;51.250;-1.118;2022-08-01T09:23:36;100604.88;;;27.46
70668;BMP280;58242;51.250;-1.118;2022-08-01T09:26:08;100606.34;;;27.51
70668;BMP280;58242;51.250;-1.118;2022-08-01T09:28:34;100608.97;;;27.58
70668;BMP280;58242;51.250;-1.118;2022-08-01T09:31:06;100607.72;;;27.62
70668;BMP280;58242;51.250;-1.118;2022-08-01T09:33:55;100619.03;;;27.64
70668;BMP280;58242;51.250;-1.118;2022-08-01T09:36:25;100618.19;;;27.67
70668;BMP280;58242;51.250;-1.118;2022-08-01T09:38:52;100622.50;;;27.68
70668;BMP280;58242;51.250;-1.118;2022-08-01T09:41:31;100619.75;;;27.68
70668;BMP280;58242;51.250;-1.118;2022-08-01T09:43:56;100608.28;;;27.73
70668;BMP280;58242;51.250;-1.118;2022-08-01T09:46:22;100622.91;;;27.85
70668;BMP280;58242;51.250;-1.118;2022-08-01T09:49:05;100613.31;;;27.93
70668;BMP280;58242;51.250;-1.118;2022-08-01T09:51:35;100612.66;;;28.05
70668;BMP280;58242;51.250;-1.118;2022-08-01T09:54:03;100606.22;;;28.15
70668;BMP280;58242;51.250;-1.118;2022-08-01T09:59:03;100606.69;;;28.60
70668;BMP280;58242;51.250;-1.118;2022-08-01T10:01:41;100597.09;;;28.83
70668;BMP280;58242;51.250;-1.118;2022-08-01T10:04:17;100607.81;;;29.09
70668;BMP280;58242;51.250;-1.118;2022-08-01T10:06:44;100595.53;;;29.69
70668;BMP280;58242;51.250;-1.118;2022-08-01T10:09:12;100592.25;;;30.62
70668;BMP280;58242;51.250;-1.118;2022-08-01T10:11:43;100592.75;;;31.60
70668;BMP280;58242;51.250;-1.118;2022-08-01T10:14:08;100583.16;;;32.23
70668;BMP280;58242;51.250;-1.118;2022-08-01T10:16:38;100581.53;;;32.73
70668;BMP280;58242;51.250;-1.118;2022-08-01T10:19:06;100584.06;;;32.88
70668;BMP280;58242;51.250;-1.118;2022-08-01T10:21:33;100594.38;;;32.88
70668;BMP280;58242;51.250;-1.118;2022-08-01T10:24:02;100587.44;;;32.92
70668;BMP280;58242;51.250;-1.118;2022-08-01T10:26:32;100588.84;;;33.14
70668;BMP280;58242;51.250;-1.118;2022-08-01T10:28:58;100594.09;;;33.21
70668;BMP280;58242;51.250;-1.118;2022-08-01T10:31:23;100597.06;;;33.35
70668;BMP280;58242;51.250;-1.118;2022-08-01T10:33:50;100595.97;;;33.33
70668;BMP280;58242;51.250;-1.118;2022-08-01T10:36:18;100579.31;;;33.59
70668;BMP280;58242;51.250;-1.118;2022-08-01T10:38:44;100594.09;;;34.00
70668;BMP280;58242;51.250;-1.118;2022-08-01T10:41:12;100586.88;;;34.65
70668;BMP280;58242;51.250;-1.118;2022-08-01T10:43:40;100582.97;;;35.03
70668;BMP280;58242;51.250;-1.118;2022-08-01T10:46:05;100582.41;;;35.22
70668;BMP280;58242;51.250;-1.118;2022-08-01T10:51:05;100572.63;;;35.63
70668;BMP280;58242;51.250;-1.118;2022-08-01T10:53:31;100577.28;;;36.42
70668;BMP280;58242;51.250;-1.118;2022-08-01T10:56:04;100572.81;;;37.81
70668;BMP280;58242;51.250;-1.118;2022-08-01T10:58:38;100564.97;;;39.16
70668;BMP280;58242;51.250;-1.118;2022-08-01T11:01:23;100572.31;;;40.45
70668;BMP280;58242;51.250;-1.118;2022-08-01T11:06:41;100580.50;;;41.81
70668;BMP280;58242;51.250;-1.118;2022-08-01T11:12:05;100591.03;;;41.14
70668;BMP280;58242;51.250;-1.118;2022-08-01T11:14:33;100583.53;;;40.61
70668;BMP280;58242;51.250;-1.118;2022-08-01T11:20:11;100582.50;;;39.89
70668;BMP280;58242;51.250;-1.118;2022-08-01T11:25:23;100576.34;;;39.80
70668;BMP280;58242;51.250;-1.118;2022-08-01T11:30:46;100575.63;;;40.17
70668;BMP280;58242;51.250;-1.118;2022-08-01T11:33:14;100578.22;;;40.26
70668;BMP280;58242;51.250;-1.118;2022-08-01T11:38:46;100566.44;;;40.64
70668;BMP280;58242;51.250;-1.118;2022-08-01T11:41:34;100561.84;;;40.72
70668;BMP280;58242;51.250;-1.118;2022-08-01T11:44:22;100561.78;;;40.83
70668;BMP280;58242;51.250;-1.118;2022-08-01T11:46:51;100549.56;;;41.47
70668;BMP280;58242;51.250;-1.118;2022-08-01T11:52:07;100542.00;;;43.44
70668;BMP280;58242;51.250;-1.118;2022-08-01T11:54:44;100540.63;;;44.17
70668;BMP280;58242;51.250;-1.118;2022-08-01T11:57:12;100539.56;;;44.33
70668;BMP280;58242;51.250;-1.118;2022-08-01T12:02:19;100541.59;;;45.13
70668;BMP280;58242;51.250;-1.118;2022-08-01T12:07:16;100532.03;;;45.94
70668;BMP280;58242;51.250;-1.118;2022-08-01T12:09:41;100533.72;;;46.37
70668;BMP280;58242;51.250;-1.118;2022-08-01T12:12:07;100533.50;;;46.82
70668;BMP280;58242;51.250;-1.118;2022-08-01T12:14:33;100524.72;;;47.35
70668;BMP280;58242;51.250;-1.118;2022-08-01T12:16:59;100523.88;;;47.12
70668;BMP280;58242;51.250;-1.118;2022-08-01T12:19:24;100525.44;;;46.39
70668;BMP280;58242;51.250;-1.118;2022-08-01T12:22:09;100513.50;;;45.53
70668;BMP280;58242;51.250;-1.118;2022-08-01T12:24:36;100520.13;;;44.85
70668;BMP280;58242;51.250;-1.118;2022-08-01T12:27:03;100521.22;;;44.14
70668;BMP280;58242;51.250;-1.118;2022-08-01T12:32:01;100508.38;;;43.16
70668;BMP280;58242;51.250;-1.118;2022-08-01T12:34:30;100508.72;;;42.89
70668;BMP280;58242;51.250;-1.118;2022-08-01T12:36:57;100505.63;;;42.92
70668;BMP280;58242;51.250;-1.118;2022-08-01T12:39:30;100503.66;;;42.82
70668;BMP280;58242;51.250;-1.118;2022-08-01T12:41:55;100505.56;;;42.74
70668;BMP280;58242;51.250;-1.118;2022-08-01T12:44:21;100506.75;;;42.61
70668;BMP280;58242;51.250;-1.118;2022-08-01T12:46:46;100504.38;;;42.41
70668;BMP280;58242;51.250;-1.118;2022-08-01T12:49:12;100508.41;;;42.22
70668;BMP280;58242;51.250;-1.118;2022-08-01T12:51:38;100504.91;;;42.11
70668;BMP280;58242;51.250;-1.118;2022-08-01T12:54:03;100492.06;;;42.68
70668;BMP280;58242;51.250;-1.118;2022-08-01T12:56:33;100494.66;;;43.43
70668;BMP280;58242;51.250;-1.118;2022-08-01T12:58:59;100498.75;;;43.60
70668;BMP280;58242;51.250;-1.118;2022-08-01T13:01:26;100501.94;;;43.87
70668;BMP280;58242;51.250;-1.118;2022-08-01T13:04:02;100489.88;;;44.17
70668;BMP280;58242;51.250;-1.118;2022-08-01T13:06:31;100486.25;;;44.73
70668;BMP280;58242;51.250;-1.118;2022-08-01T13:09:09;100476.81;;;45.41
70668;BMP280;58242;51.250;-1.118;2022-08-01T13:11:36;100479.97;;;45.90
70668;BMP280;58242;51.250;-1.118;2022-08-01T13:14:02;100475.53;;;46.21
70668;BMP280;58242;51.250;-1.118;2022-08-01T13:16:27;100477.97;;;46.45
70668;BMP280;58242;51.250;-1.118;2022-08-01T13:18:55;100466.56;;;46.57
70668;BMP280;58242;51.250;-1.118;2022-08-01T13:21:27;100466.16;;;46.81
70668;BMP280;58242;51.250;-1.118;2022-08-01T13:24:10;100461.81;;;46.87
70668;BMP280;58242;51.250;-1.118;2022-08-01T13:29:04;100472.47;;;46.39
70668;BMP280;58242;51.250;-1.118;2022-08-01T13:31:36;100477.81;;;46.23
70668;BMP280;58242;51.250;-1.118;2022-08-01T13:34:02;100470.06;;;46.03
70668;BMP280;58242;51.250;-1.118;2022-08-01T13:36:28;100464.06;;;45.80
70668;BMP280;58242;51.250;-1.118;2022-08-01T13:38:57;100464.19;;;45.94
70668;BMP280;58242;51.250;-1.118;2022-08-01T13:41:41;100458.56;;;46.01
70668;BMP280;58242;51.250;-1.118;2022-08-01T13:44:07;100458.72;;;45.56
70668;BMP280;58242;51.250;-1.118;2022-08-01T13:46:34;100452.69;;;45.40
70668;BMP280;58242;51.250;-1.118;2022-08-01T13:49:00;100451.88;;;45.52
70668;BMP280;58242;51.250;-1.118;2022-08-01T13:51:26;100452.97;;;45.69
70668;BMP280;58242;51.250;-1.118;2022-08-01T13:53:51;100454.44;;;45.63
70668;BMP280;58242;51.250;-1.118;2022-08-01T13:56:16;100456.16;;;45.33
70668;BMP280;58242;51.250;-1.118;2022-08-01T13:58:43;100462.25;;;44.92
70668;BMP280;58242;51.250;-1.118;2022-08-01T14:01:08;100452.06;;;44.51
70668;BMP280;58242;51.250;-1.118;2022-08-01T14:03:34;100450.63;;;44.19
70668;BMP280;58242;51.250;-1.118;2022-08-01T14:06:00;100457.81;;;43.90
70668;BMP280;58242;51.250;-1.118;2022-08-01T14:08:25;100444.63;;;43.67
70668;BMP280;58242;51.250;-1.118;2022-08-01T14:10:51;100435.28;;;43.59
70668;BMP280;58242;51.250;-1.118;2022-08-01T14:13:18;100441.16;;;43.61
70668;BMP280;58242;51.250;-1.118;2022-08-01T14:15:44;100446.16;;;43.68
70668;BMP280;58242;51.250;-1.118;2022-08-01T14:18:09;100439.25;;;43.69
70668;BMP280;58242;51.250;-1.118;2022-08-01T14:20:35;100441.16;;;43.61
70668;BMP280;58242;51.250;-1.118;2022-08-01T14:23:02;100444.75;;;43.43
70668;BMP280;58242;51.250;-1.118;2022-08-01T14:25:27;100435.63;;;43.38
70668;BMP280;58242;51.250;-1.118;2022-08-01T14:27:53;100432.38;;;43.34
70668;BMP280;58242;51.250;-1.118;2022-08-01T14:30:18;100438.75;;;43.16
70668;BMP280;58242;51.250;-1.118;2022-08-01T14:32:44;100427.78;;;42.77
70668;BMP280;58242;51.250;-1.118;2022-08-01T14:35:09;100441.97;;;42.25
70668;BMP280;58242;51.250;-1.118;2022-08-01T14:37:34;100429.38;;;41.74